Time,TemperatureF,DewpointF,PressureIn,WindDirection,WindDirectionDegrees,WindSpeedMPH,WindSpeedGustMPH,Humidity,HourlyPrecipIn,Conditions,Clouds,dailyrainin,SoftwareType,DateUTC
2013-04-19 00:01:00,55.2,46.0,29.97,NE,46,0.0,10.9,71,0.00,,,0.00,VWS V14.00,2013-04-19 04:01:00,
2013-04-19 00:03:00,54.6,42.7,29.98,South,169,5.3,8.0,64,0.00,,,0.00,VWS V14.00,2013-04-19 04:03:00,
2013-04-19 00:04:00,55.4,46.1,29.97,NNE,13,7.2,10.9,71,0.00,,,0.00,VWS V14.00,2013-04-19 04:04:00,
2013-04-19 00:06:00,54.7,43.1,29.98,SE,135,4.3,8.0,65,0.00,,,0.00,VWS V14.00,2013-04-19 04:06:00,
2013-04-19 00:07:00,55.3,46.2,29.97,ENE,65,0.0,10.9,71,0.00,,,0.00,VWS V14.00,2013-04-19 04:07:00,
2013-04-19 00:10:00,55.4,46.2,29.97,North,8,0.0,10.9,71,0.00,,,0.00,VWS V14.00,2013-04-19 04:10:00,
2013-04-19 00:12:00,54.8,43.7,29.97,SE,134,0.0,6.6,66,0.00,,,0.00,VWS V14.00,2013-04-19 04:12:00,
2013-04-19 00:13:00,55.5,46.5,29.96,SSE,160,3.2,10.9,72,0.00,,,0.00,VWS V14.00,2013-04-19 04:13:00,
2013-04-19 00:15:00,54.8,43.7,29.97,SE,134,0.0,6.6,66,0.00,,,0.00,VWS V14.00,2013-04-19 04:15:00,
2013-04-19 00:16:00,55.3,46.2,29.96,SE,136,6.3,10.9,71,0.00,,,0.00,VWS V14.00,2013-04-19 04:16:00,
2013-04-19 00:19:00,55.3,46.3,29.96,East,97,5.3,10.9,72,0.00,,,0.00,VWS V14.00,2013-04-19 04:19:00,
2013-04-19 00:21:00,54.8,43.9,29.96,South,173,3.0,8.9,66,0.00,,,0.00,VWS V14.00,2013-04-19 04:21:00,
2013-04-19 00:22:00,55.3,46.4,29.96,East,96,4.6,10.9,72,0.00,,,0.00,VWS V14.00,2013-04-19 04:22:00,
2013-04-19 00:25:00,55.3,46.3,29.96,SE,124,0.0,10.9,72,0.00,,,0.00,VWS V14.00,2013-04-19 04:25:00,
2013-04-19 00:27:00,54.8,44.1,29.96,South,177,0.0,0.0,67,0.00,,,0.00,VWS V14.00,2013-04-19 04:27:00,
2013-04-19 00:28:00,55.3,46.5,29.96,SE,136,6.7,10.9,72,0.00,,,0.00,VWS V14.00,2013-04-19 04:28:00,
2013-04-19 00:31:00,55.2,46.5,29.95,SE,129,5.8,10.9,72,0.00,,,0.00,VWS V14.00,2013-04-19 04:31:00,
2013-04-19 00:33:00,54.9,44.5,29.97,North,6,5.4,6.3,68,0.00,,,0.00,VWS V14.00,2013-04-19 04:33:00,
2013-04-19 00:34:00,55.2,46.6,29.95,SE,132,4.5,10.9,73,0.00,,,0.00,VWS V14.00,2013-04-19 04:34:00,
2013-04-19 00:37:00,55.2,46.5,29.95,SSE,150,0.0,10.9,72,0.00,,,0.00,VWS V14.00,2013-04-19 04:37:00,
2013-04-19 00:39:00,54.8,44.8,29.97,North,3,7.4,11.6,69,0.00,,,0.00,VWS V14.00,2013-04-19 04:39:00,
2013-04-19 00:40:00,55.2,46.8,29.95,ESE,115,3.2,10.9,73,0.00,,,0.00,VWS V14.00,2013-04-19 04:40:00,
2013-04-19 00:43:00,55.4,47.5,29.95,SE,138,4.8,12.9,75,0.00,,,0.00,VWS V14.00,2013-04-19 04:43:00,
2013-04-19 00:45:00,55.2,45.9,29.97,North,10,2.7,13.7,71,0.00,,,0.00,VWS V14.00,2013-04-19 04:45:00,
2013-04-19 00:46:00,55.3,47.5,29.95,SE,138,2.5,12.9,75,0.00,,,0.00,VWS V14.00,2013-04-19 04:46:00,
2013-04-19 00:49:00,55.3,47.3,29.95,North,1,6.3,12.9,74,0.00,,,0.00,VWS V14.00,2013-04-19 04:49:00,
2013-04-19 00:51:00,55.3,46.2,29.97,NNE,22,3.4,10.9,71,0.00,,,0.00,VWS V14.00,2013-04-19 04:51:00,
2013-04-19 00:52:00,55.5,48.0,29.95,East,93,1.9,12.9,76,0.00,,,0.00,VWS V14.00,2013-04-19 04:52:00,
2013-04-19 00:55:00,55.6,48.2,29.95,ENE,68,0.0,12.9,76,0.00,,,0.00,VWS V14.00,2013-04-19 04:55:00,
2013-04-19 00:58:00,55.7,48.4,29.95,East,84,3.3,12.9,76,0.00,,,0.00,VWS V14.00,2013-04-19 04:58:00,
2013-04-19 01:01:00,55.7,48.8,29.95,ESE,108,0.0,12.9,78,0.00,,,0.00,VWS V14.00,2013-04-19 05:01:00,
2013-04-19 01:04:00,55.7,48.9,29.95,NNE,22,0.0,12.9,78,0.00,,,0.00,VWS V14.00,2013-04-19 05:04:00,
2013-04-19 01:07:00,55.9,49.1,29.95,NE,38,0.0,12.9,78,0.00,,,0.00,VWS V14.00,2013-04-19 05:07:00,
2013-04-19 01:10:00,55.9,49.1,29.95,NNE,25,3.2,12.9,78,0.00,,,0.00,VWS V14.00,2013-04-19 05:10:00,
2013-04-19 01:13:00,56.0,49.3,29.95,NNE,27,2.1,12.9,78,0.00,,,0.00,VWS V14.00,2013-04-19 05:13:00,
2013-04-19 01:16:00,56.1,49.5,29.95,NNE,27,0.0,12.9,78,0.00,,,0.00,VWS V14.00,2013-04-19 05:16:00,
2013-04-19 01:19:00,56.1,49.5,29.94,ESE,107,5.2,12.9,78,0.00,,,0.00,VWS V14.00,2013-04-19 05:19:00,
2013-04-19 01:22:00,56.1,49.5,29.95,NNE,24,0.0,12.9,79,0.00,,,0.00,VWS V14.00,2013-04-19 05:22:00,
2013-04-19 01:26:00,56.2,49.7,29.94,NNE,24,0.0,12.9,79,0.00,,,0.00,VWS V14.00,2013-04-19 05:26:00,
2013-04-19 01:29:00,56.2,49.7,29.94,East,98,0.0,12.9,79,0.00,,,0.00,VWS V14.00,2013-04-19 05:29:00,
2013-04-19 01:32:00,56.1,49.6,29.94,East,98,0.0,12.9,79,0.00,,,0.00,VWS V14.00,2013-04-19 05:32:00,
2013-04-19 01:35:00,56.1,49.6,29.94,East,98,0.0,12.9,79,0.00,,,0.00,VWS V14.00,2013-04-19 05:35:00,
2013-04-19 01:38:00,56.1,49.7,29.94,NNE,14,3.4,12.9,79,0.00,,,0.00,VWS V14.00,2013-04-19 05:38:00,
2013-04-19 01:41:00,56.2,49.8,29.93,ENE,77,0.0,12.9,79,0.00,,,0.00,VWS V14.00,2013-04-19 05:41:00,
2013-04-19 01:44:00,56.3,49.9,29.93,SSE,155,4.6,12.9,79,0.00,,,0.00,VWS V14.00,2013-04-19 05:44:00,
2013-04-19 01:47:00,56.4,50.1,29.94,North,356,0.0,12.9,79,0.00,,,0.00,VWS V14.00,2013-04-19 05:47:00,
2013-04-19 01:50:00,56.4,50.1,29.93,NE,35,5.4,12.9,79,0.00,,,0.00,VWS V14.00,2013-04-19 05:50:00,
2013-04-19 01:53:00,56.4,50.2,29.93,SE,134,8.7,12.9,80,0.00,,,0.00,VWS V14.00,2013-04-19 05:53:00,
2013-04-19 01:56:00,56.4,50.2,29.93,NE,39,0.0,12.9,80,0.00,,,0.00,VWS V14.00,2013-04-19 05:56:00,
2013-04-19 01:59:00,56.6,50.5,29.93,North,1,5.8,12.9,80,0.00,,,0.00,VWS V14.00,2013-04-19 05:59:00,
2013-04-19 02:02:00,56.6,50.5,29.92,SE,128,3.2,12.9,80,0.00,,,0.00,VWS V14.00,2013-04-19 06:02:00,
2013-04-19 02:05:00,56.6,50.5,29.93,NNE,20,4.7,12.9,80,0.00,,,0.00,VWS V14.00,2013-04-19 06:05:00,
2013-04-19 02:08:00,56.7,50.7,29.92,North,10,0.0,12.9,80,0.00,,,0.00,VWS V14.00,2013-04-19 06:08:00,
2013-04-19 02:11:00,56.8,50.8,29.92,NE,37,3.3,12.9,80,0.00,,,0.00,VWS V14.00,2013-04-19 06:11:00,
2013-04-19 02:14:00,56.8,50.7,29.92,NE,56,0.0,12.9,80,0.00,,,0.00,VWS V14.00,2013-04-19 06:14:00,
2013-04-19 02:17:00,56.9,50.8,29.92,NNE,30,0.0,12.9,80,0.00,,,0.00,VWS V14.00,2013-04-19 06:17:00,
2013-04-19 02:20:00,57.0,51.0,29.92,NNE,25,5.0,12.9,80,0.00,,,0.00,VWS V14.00,2013-04-19 06:20:00,
2013-04-19 02:23:00,57.0,50.9,29.91,NNE,25,6.8,12.9,80,0.00,,,0.00,VWS V14.00,2013-04-19 06:23:00,
2013-04-19 02:26:00,57.1,51.0,29.91,East,100,3.0,12.9,80,0.00,,,0.00,VWS V14.00,2013-04-19 06:26:00,
2013-04-19 02:29:00,57.2,51.0,29.91,NE,46,4.9,12.9,80,0.00,,,0.00,VWS V14.00,2013-04-19 06:29:00,
2013-04-19 02:32:00,57.1,51.0,29.91,NNE,24,8.9,12.9,80,0.00,,,0.00,VWS V14.00,2013-04-19 06:32:00,
2013-04-19 02:35:00,57.2,51.1,29.91,NNW,339,10.6,12.9,80,0.00,,,0.00,VWS V14.00,2013-04-19 06:35:00,
2013-04-19 02:38:00,57.4,51.4,29.91,NNE,21,5.0,12.9,80,0.00,,,0.00,VWS V14.00,2013-04-19 06:38:00,
2013-04-19 02:41:00,57.4,51.4,29.90,NNE,32,6.1,12.9,80,0.00,,,0.00,VWS V14.00,2013-04-19 06:41:00,
2013-04-19 02:44:00,57.6,51.5,29.90,North,0,4.9,12.9,80,0.00,,,0.00,VWS V14.00,2013-04-19 06:44:00,
2013-04-19 02:47:00,57.7,51.6,29.90,NNE,21,6.1,12.9,80,0.00,,,0.00,VWS V14.00,2013-04-19 06:47:00,
2013-04-19 02:50:00,57.7,51.6,29.90,NNE,32,3.2,12.9,80,0.00,,,0.00,VWS V14.00,2013-04-19 06:50:00,
2013-04-19 02:53:00,57.7,51.5,29.89,NE,46,2.7,12.9,80,0.00,,,0.00,VWS V14.00,2013-04-19 06:53:00,
2013-04-19 02:56:00,57.6,51.4,29.89,NNE,14,4.7,12.9,80,0.00,,,0.00,VWS V14.00,2013-04-19 06:56:00,
2013-04-19 02:59:00,57.7,51.5,29.89,East,93,5.0,12.9,80,0.00,,,0.00,VWS V14.00,2013-04-19 06:59:00,
2013-04-19 03:02:00,57.8,51.6,29.89,ESE,108,5.3,12.9,80,0.00,,,0.00,VWS V14.00,2013-04-19 07:02:00,
2013-04-19 03:05:00,57.7,51.5,29.89,SE,141,7.0,12.9,80,0.00,,,0.00,VWS V14.00,2013-04-19 07:05:00,
2013-04-19 03:08:00,57.8,51.7,29.89,ENE,59,2.7,12.9,80,0.00,,,0.00,VWS V14.00,2013-04-19 07:08:00,
2013-04-19 03:11:00,58.0,51.9,29.88,East,82,4.7,12.9,80,0.00,,,0.00,VWS V14.00,2013-04-19 07:11:00,
2013-04-19 03:14:00,58.1,52.0,29.88,NE,44,10.6,12.9,80,0.00,,,0.00,VWS V14.00,2013-04-19 07:14:00,
2013-04-19 03:17:00,58.1,52.0,29.88,East,94,3.4,12.9,80,0.00,,,0.00,VWS V14.00,2013-04-19 07:17:00,
2013-04-19 03:20:00,58.1,51.9,29.89,NE,46,6.2,12.9,80,0.00,,,0.00,VWS V14.00,2013-04-19 07:20:00,
2013-04-19 03:23:00,58.2,52.0,29.88,SW,235,3.0,12.9,80,0.00,,,0.00,VWS V14.00,2013-04-19 07:23:00,
2013-04-19 03:26:00,58.3,52.1,29.89,ESE,107,8.6,12.9,80,0.00,,,0.00,VWS V14.00,2013-04-19 07:26:00,
2013-04-19 03:29:00,58.2,52.0,29.89,NE,56,8.6,12.9,80,0.00,,,0.00,VWS V14.00,2013-04-19 07:29:00,
2013-04-19 03:32:00,58.3,52.1,29.89,NNE,14,13.2,13.2,80,0.00,,,0.00,VWS V14.00,2013-04-19 07:32:00,
2013-04-19 03:35:00,58.3,52.1,29.89,ENE,59,6.8,13.2,80,0.00,,,0.00,VWS V14.00,2013-04-19 07:35:00,
2013-04-19 03:38:00,58.4,52.2,29.89,North,10,0.0,13.2,80,0.00,,,0.00,VWS V14.00,2013-04-19 07:38:00,
2013-04-19 03:41:00,58.3,52.1,29.89,NE,52,6.2,13.2,80,0.00,,,0.00,VWS V14.00,2013-04-19 07:41:00,
2013-04-19 03:44:00,58.4,52.2,29.89,NE,49,5.2,13.2,80,0.00,,,0.00,VWS V14.00,2013-04-19 07:44:00,
2013-04-19 03:47:00,58.4,52.2,29.89,NNW,347,6.8,13.2,80,0.00,,,0.00,VWS V14.00,2013-04-19 07:47:00,
2013-04-19 03:50:00,58.4,52.2,29.89,NNE,22,3.4,13.2,80,0.00,,,0.00,VWS V14.00,2013-04-19 07:50:00,
2013-04-19 03:53:00,58.3,52.2,29.89,ENE,75,4.8,13.2,80,0.00,,,0.00,VWS V14.00,2013-04-19 07:53:00,
2013-04-19 03:56:00,58.3,52.2,29.89,NNE,17,4.9,13.2,80,0.00,,,0.00,VWS V14.00,2013-04-19 07:56:00,
2013-04-19 03:59:00,58.3,52.2,29.89,NNE,25,7.4,13.2,80,0.00,,,0.00,VWS V14.00,2013-04-19 07:59:00,
2013-04-19 04:02:00,58.3,52.2,29.89,North,11,0.0,13.2,80,0.00,,,0.00,VWS V14.00,2013-04-19 08:02:00,
2013-04-19 04:05:00,58.2,52.1,29.89,NW,326,4.8,13.2,80,0.00,,,0.00,VWS V14.00,2013-04-19 08:05:00,
2013-04-19 04:08:00,58.2,52.2,29.89,NW,326,3.1,13.2,80,0.00,,,0.00,VWS V14.00,2013-04-19 08:08:00,
2013-04-19 04:11:00,58.2,52.3,29.89,NNW,328,4.8,13.2,81,0.00,,,0.00,VWS V14.00,2013-04-19 08:11:00,
2013-04-19 04:14:00,58.3,52.4,29.89,NNE,30,4.2,13.2,81,0.00,,,0.00,VWS V14.00,2013-04-19 08:14:00,
2013-04-19 04:17:00,58.3,52.4,29.89,WNW,292,0.0,13.2,81,0.00,,,0.00,VWS V14.00,2013-04-19 08:17:00,
2013-04-19 04:20:00,58.1,52.2,29.89,WNW,292,0.0,13.2,81,0.00,,,0.00,VWS V14.00,2013-04-19 08:20:00,
2013-04-19 04:23:00,58.1,52.2,29.89,NNW,342,3.2,13.2,81,0.00,,,0.00,VWS V14.00,2013-04-19 08:23:00,
2013-04-19 04:33:00,58.0,52.4,29.89,SSW,201,0.0,13.2,82,0.00,,,0.00,VWS V14.00,2013-04-19 08:33:00,
2013-04-19 04:36:00,58.0,52.5,29.89,North,359,0.0,13.2,82,0.00,,,0.00,VWS V14.00,2013-04-19 08:36:00,
2013-04-19 04:39:00,58.1,52.6,29.89,WNW,300,0.0,13.2,82,0.00,,,0.00,VWS V14.00,2013-04-19 08:39:00,
2013-04-19 04:42:00,58.1,52.5,29.89,WNW,300,0.0,13.2,82,0.00,,,0.00,VWS V14.00,2013-04-19 08:42:00,
2013-04-19 04:54:00,58.1,52.7,29.89,NNW,346,4.5,13.2,82,0.00,,,0.00,VWS V14.00,2013-04-19 08:54:00,
2013-04-19 05:06:00,58.0,52.6,29.88,NW,311,3.2,13.2,82,0.00,,,0.00,VWS V14.00,2013-04-19 09:06:00,
2013-04-19 05:09:00,58.0,52.6,29.88,NNW,333,0.0,13.2,82,0.00,,,0.00,VWS V14.00,2013-04-19 09:09:00,
2013-04-19 05:15:00,58.0,52.6,29.88,NW,311,0.0,13.2,82,0.00,,,0.00,VWS V14.00,2013-04-19 09:15:00,
2013-04-19 05:21:00,57.8,52.5,29.87,NNW,342,0.0,13.2,82,0.00,,,0.00,VWS V14.00,2013-04-19 09:21:00,
2013-04-19 05:23:00,58.2,52.4,29.89,NNW,345,7.1,13.2,81,0.00,,,0.00,VWS V14.00,2013-04-19 09:23:00,
2013-04-19 05:27:00,57.7,52.4,29.87,SE,131,5.1,13.2,82,0.00,,,0.00,VWS V14.00,2013-04-19 09:27:00,
2013-04-19 05:33:00,57.7,52.4,29.87,East,79,3.4,13.2,82,0.00,,,0.00,VWS V14.00,2013-04-19 09:33:00,
2013-04-19 05:41:00,58.1,52.5,29.89,NNE,22,2.7,13.2,82,0.00,,,0.00,VWS V14.00,2013-04-19 09:41:00,
2013-04-19 05:47:00,58.0,52.4,29.88,North,7,6.9,13.2,82,0.00,,,0.00,VWS V14.00,2013-04-19 09:47:00,
2013-04-19 05:51:00,57.5,52.3,29.87,East,87,0.0,13.2,83,0.00,,,0.00,VWS V14.00,2013-04-19 09:51:00,
2013-04-19 05:53:00,58.0,52.6,29.88,NNW,329,3.5,13.2,82,0.00,,,0.00,VWS V14.00,2013-04-19 09:53:00,
2013-04-19 05:59:00,58.1,52.7,29.88,NNW,338,3.4,13.2,82,0.00,,,0.00,VWS V14.00,2013-04-19 09:59:00,
2013-04-19 06:08:00,58.0,52.6,29.88,NNW,333,0.0,13.2,82,0.00,,,0.00,VWS V14.00,2013-04-19 10:08:00,
2013-04-19 06:14:00,57.9,52.5,29.88,NNW,342,0.0,13.2,82,0.00,,,0.00,VWS V14.00,2013-04-19 10:14:00,
2013-04-19 06:20:00,57.8,52.5,29.87,NNW,342,0.0,13.2,82,0.00,,,0.00,VWS V14.00,2013-04-19 10:20:00,
2013-04-19 06:26:00,57.6,52.3,29.87,East,94,0.0,13.2,82,0.00,,,0.00,VWS V14.00,2013-04-19 10:26:00,
2013-04-19 06:32:00,57.8,52.7,29.87,West,259,0.0,13.2,83,0.00,,,0.00,VWS V14.00,2013-04-19 10:32:00,
2013-04-19 06:38:00,57.8,52.6,29.87,SW,214,4.7,13.2,83,0.00,,,0.00,VWS V14.00,2013-04-19 10:38:00,
2013-04-19 06:44:00,57.7,52.5,29.87,East,87,0.0,13.2,83,0.00,,,0.00,VWS V14.00,2013-04-19 10:44:00,
2013-04-19 06:50:00,57.4,52.2,29.87,East,87,0.0,13.2,83,0.00,,,0.00,VWS V14.00,2013-04-19 10:50:00,
2013-04-19 06:56:00,57.5,52.5,29.86,South,179,0.0,13.2,83,0.00,,,0.00,VWS V14.00,2013-04-19 10:56:00,
2013-04-19 07:02:00,57.8,52.8,29.86,NNE,30,0.0,13.2,84,0.00,,,0.00,VWS V14.00,2013-04-19 11:02:00,
2013-04-19 07:08:00,57.8,52.8,29.86,NNE,15,3.2,13.2,83,0.00,,,0.00,VWS V14.00,2013-04-19 11:08:00,
2013-04-19 07:14:00,58.1,52.9,29.86,North,1,3.3,13.2,83,0.00,,,0.00,VWS V14.00,2013-04-19 11:14:00,
2013-04-19 07:20:00,58.3,52.9,29.85,NNE,14,2.5,13.2,82,0.00,,,0.00,VWS V14.00,2013-04-19 11:20:00,
2013-04-19 07:26:00,58.4,52.9,29.85,NNE,22,0.0,13.2,82,0.00,,,0.00,VWS V14.00,2013-04-19 11:26:00,
2013-04-19 07:32:00,58.6,52.9,29.85,NNE,25,0.0,13.2,81,0.00,,,0.00,VWS V14.00,2013-04-19 11:32:00,
2013-04-19 07:39:00,58.9,53.2,29.85,ESE,111,2.3,13.2,81,0.00,,,0.00,VWS V14.00,2013-04-19 11:39:00,
2013-04-19 07:45:00,59.2,53.5,29.85,North,10,4.7,13.2,81,0.00,,,0.00,VWS V14.00,2013-04-19 11:45:00,
2013-04-19 07:51:00,59.5,53.6,29.86,North,357,5.5,13.2,81,0.00,,,0.00,VWS V14.00,2013-04-19 11:51:00,
2013-04-19 07:57:00,60.1,53.8,29.86,ENE,59,0.0,13.2,80,0.00,,,0.00,VWS V14.00,2013-04-19 11:57:00,
2013-04-19 08:03:00,60.6,53.8,29.85,NNE,30,4.4,13.2,78,0.00,,,0.00,VWS V14.00,2013-04-19 12:03:00,
2013-04-19 08:09:00,61.2,54.0,29.85,NNE,32,6.4,13.2,77,0.00,,,0.00,VWS V14.00,2013-04-19 12:09:00,
2013-04-19 08:15:00,61.8,54.0,29.85,NNW,342,5.2,13.2,76,0.00,,,0.00,VWS V14.00,2013-04-19 12:15:00,
2013-04-19 08:21:00,62.2,53.9,29.84,NNW,346,6.4,13.2,74,0.00,,,0.00,VWS V14.00,2013-04-19 12:21:00,
2013-04-19 08:27:00,62.6,53.8,29.84,NE,37,8.6,13.2,73,0.00,,,0.00,VWS V14.00,2013-04-19 12:27:00,
2013-04-19 08:33:00,63.1,54.1,29.84,NE,49,4.9,13.2,72,0.00,,,0.00,VWS V14.00,2013-04-19 12:33:00,
2013-04-19 08:39:00,63.8,54.2,29.84,NNE,30,7.0,13.2,71,0.00,,,0.00,VWS V14.00,2013-04-19 12:39:00,
2013-04-19 08:45:00,64.2,53.9,29.84,North,8,7.1,13.2,69,0.00,,,0.00,VWS V14.00,2013-04-19 12:45:00,
2013-04-19 08:51:00,64.4,53.9,29.84,NNE,21,9.5,13.2,69,0.00,,,0.00,VWS V14.00,2013-04-19 12:51:00,
2013-04-19 08:57:00,64.3,53.5,29.84,NE,35,4.5,13.2,68,0.00,,,0.00,VWS V14.00,2013-04-19 12:57:00,
2013-04-19 09:03:00,64.2,53.4,29.84,NNE,20,5.3,13.8,68,0.00,,,0.00,VWS V14.00,2013-04-19 13:03:00,
2013-04-19 09:09:00,64.1,53.4,29.83,NE,55,5.4,13.8,68,0.00,,,0.00,VWS V14.00,2013-04-19 13:09:00,
2013-04-19 09:15:00,64.2,53.5,29.83,NNE,18,8.6,13.8,68,0.00,,,0.00,VWS V14.00,2013-04-19 13:15:00,
2013-04-19 09:21:00,64.2,53.5,29.83,NE,38,5.7,13.8,68,0.00,,,0.00,VWS V14.00,2013-04-19 13:21:00,
2013-04-19 09:27:00,64.0,53.4,29.82,NNE,24,7.5,13.8,68,0.00,,,0.00,VWS V14.00,2013-04-19 13:27:00,
2013-04-19 09:33:00,64.0,53.4,29.82,North,357,11.2,13.8,68,0.00,,,0.00,VWS V14.00,2013-04-19 13:33:00,
2013-04-19 09:39:00,64.2,53.6,29.82,ESE,118,2.8,14.2,68,0.00,,,0.00,VWS V14.00,2013-04-19 13:39:00,
2013-04-19 09:45:00,64.6,53.7,29.82,NE,48,7.3,14.2,68,0.00,,,0.00,VWS V14.00,2013-04-19 13:45:00,
2013-04-19 09:51:00,65.1,53.9,29.82,NE,52,4.2,14.2,67,0.00,,,0.00,VWS V14.00,2013-04-19 13:51:00,
2013-04-19 09:57:00,65.6,54.0,29.81,SE,139,9.0,14.2,66,0.00,,,0.00,VWS V14.00,2013-04-19 13:57:00,
2013-04-19 10:03:00,66.6,54.3,29.80,NE,46,6.4,14.2,64,0.00,,,0.00,VWS V14.00,2013-04-19 14:03:00,
2013-04-19 10:09:00,67.7,54.3,29.80,North,350,6.8,14.2,62,0.00,,,0.00,VWS V14.00,2013-04-19 14:09:00,
2013-04-19 10:15:00,68.2,53.6,29.80,NNE,32,7.6,14.2,60,0.00,,,0.00,VWS V14.00,2013-04-19 14:15:00,
2013-04-19 10:21:00,68.9,53.6,29.80,NNE,27,7.7,14.5,58,0.00,,,0.00,VWS V14.00,2013-04-19 14:21:00,
2013-04-19 10:27:00,69.3,53.0,29.80,NNE,17,8.6,14.5,56,0.00,,,0.00,VWS V14.00,2013-04-19 14:27:00,
2013-04-19 10:33:00,69.4,52.8,29.80,NNE,17,7.5,14.5,56,0.00,,,0.00,VWS V14.00,2013-04-19 14:33:00,
2013-04-19 10:39:00,70.0,52.7,29.79,East,89,0.0,15.9,54,0.00,,,0.00,VWS V14.00,2013-04-19 14:39:00,
2013-04-19 10:45:00,70.3,51.9,29.79,NNE,24,11.4,19.4,52,0.00,,,0.00,VWS V14.00,2013-04-19 14:45:00,
2013-04-19 10:51:00,70.5,51.8,29.78,NNE,22,13.4,19.4,52,0.00,,,0.00,VWS V14.00,2013-04-19 14:51:00,
2013-04-19 10:57:00,70.9,51.6,29.78,ENE,73,7.0,19.4,50,0.00,,,0.00,VWS V14.00,2013-04-19 14:57:00,
2013-04-19 11:04:00,71.4,51.4,29.79,NNE,22,10.6,19.4,49,0.00,,,0.00,VWS V14.00,2013-04-19 15:04:00,
2013-04-19 11:10:00,71.9,51.0,29.79,North,0,9.8,19.4,48,0.00,,,0.00,VWS V14.00,2013-04-19 15:10:00,
2013-04-19 11:16:00,72.5,50.6,29.78,ENE,58,6.8,19.9,46,0.00,,,0.00,VWS V14.00,2013-04-19 15:16:00,
2013-04-19 11:22:00,72.3,50.4,29.78,ENE,73,9.4,21.9,46,0.00,,,0.00,VWS V14.00,2013-04-19 15:22:00,
2013-04-19 11:28:00,72.2,50.2,29.79,NE,51,7.8,21.9,46,0.00,,,0.00,VWS V14.00,2013-04-19 15:28:00,
2013-04-19 11:34:00,72.5,50.3,29.79,North,357,3.4,21.9,46,0.00,,,0.00,VWS V14.00,2013-04-19 15:34:00,
2013-04-19 11:40:00,72.0,49.7,29.78,NNE,20,11.9,23.3,45,0.00,,,0.00,VWS V14.00,2013-04-19 15:40:00,
2013-04-19 11:46:00,72.3,50.6,29.77,NNE,17,11.6,23.3,46,0.00,,,0.00,VWS V14.00,2013-04-19 15:46:00,
2013-04-19 11:52:00,73.0,50.4,29.77,NNE,14,8.8,23.3,45,0.00,,,0.00,VWS V14.00,2013-04-19 15:52:00,
2013-04-19 11:58:00,73.5,50.3,29.77,NNE,30,8.8,23.3,44,0.00,,,0.00,VWS V14.00,2013-04-19 15:58:00,
2013-04-19 12:04:00,73.8,49.9,29.77,North,4,7.0,23.3,43,0.00,,,0.00,VWS V14.00,2013-04-19 16:04:00,
2013-04-19 12:10:00,74.1,49.5,29.77,NNE,31,5.5,23.3,42,0.00,,,0.00,VWS V14.00,2013-04-19 16:10:00,
2013-04-19 12:16:00,74.1,48.9,29.77,North,7,10.1,23.3,41,0.00,,,0.00,VWS V14.00,2013-04-19 16:16:00,
2013-04-19 12:22:00,73.6,49.2,29.76,NE,53,4.6,23.3,42,0.00,,,0.00,VWS V14.00,2013-04-19 16:22:00,
2013-04-19 12:28:00,73.6,49.6,29.75,North,356,3.4,23.3,43,0.00,,,0.00,VWS V14.00,2013-04-19 16:28:00,
2013-04-19 12:34:00,73.9,49.7,29.74,NNE,14,6.3,23.3,42,0.00,,,0.00,VWS V14.00,2013-04-19 16:34:00,
2013-04-19 12:40:00,73.9,49.9,29.74,NNE,21,5.3,23.3,43,0.00,,,0.00,VWS V14.00,2013-04-19 16:40:00,
2013-04-19 12:46:00,74.4,50.2,29.74,NNW,347,4.6,23.3,42,0.00,,,0.00,VWS V14.00,2013-04-19 16:46:00,
2013-04-19 12:52:00,74.4,49.5,29.74,ENE,59,12.7,23.3,42,0.00,,,0.00,VWS V14.00,2013-04-19 16:52:00,
2013-04-19 12:58:00,74.0,49.8,29.74,North,359,8.0,23.3,42,0.00,,,0.00,VWS V14.00,2013-04-19 16:58:00,
2013-04-19 13:04:00,73.8,50.0,29.73,NNE,21,9.9,23.3,43,0.00,,,0.00,VWS V14.00,2013-04-19 17:04:00,
2013-04-19 13:10:00,73.7,50.5,29.73,NNE,21,9.6,23.3,44,0.00,,,0.00,VWS V14.00,2013-04-19 17:10:00,
2013-04-19 13:16:00,73.2,50.5,29.72,NE,39,10.0,23.3,45,0.00,,,0.00,VWS V14.00,2013-04-19 17:16:00,
2013-04-19 13:22:00,72.9,50.9,29.73,NNE,21,9.8,23.3,46,0.00,,,0.00,VWS V14.00,2013-04-19 17:22:00,
2013-04-19 13:28:00,72.4,51.0,29.72,NW,311,1.2,23.3,47,0.00,,,0.00,VWS V14.00,2013-04-19 17:28:00,
2013-04-19 13:34:00,72.1,51.2,29.72,North,350,8.5,23.3,48,0.00,,,0.00,VWS V14.00,2013-04-19 17:34:00,
2013-04-19 13:40:00,71.7,51.3,29.72,NNE,13,13.5,23.3,48,0.00,,,0.00,VWS V14.00,2013-04-19 17:40:00,
2013-04-19 13:46:00,71.4,51.4,29.72,North,354,8.0,23.3,49,0.00,,,0.00,VWS V14.00,2013-04-19 17:46:00,
2013-04-19 13:52:00,71.2,51.6,29.72,North,0,18.1,23.3,50,0.00,,,0.00,VWS V14.00,2013-04-19 17:52:00,
2013-04-19 13:59:00,70.7,51.8,29.72,North,8,20.1,23.3,51,0.00,,,0.00,VWS V14.00,2013-04-19 17:59:00,
2013-04-19 14:05:00,70.3,52.1,29.72,NE,37,7.4,23.3,52,0.00,,,0.00,VWS V14.00,2013-04-19 18:05:00,
2013-04-19 14:11:00,70.0,52.4,29.72,NNE,30,12.3,23.3,54,0.00,,,0.00,VWS V14.00,2013-04-19 18:11:00,
2013-04-19 14:17:00,70.1,52.8,29.71,North,359,3.2,23.3,54,0.00,,,0.00,VWS V14.00,2013-04-19 18:17:00,
2013-04-19 14:23:00,71.2,53.4,29.71,NE,39,11.6,23.3,53,0.00,,,0.00,VWS V14.00,2013-04-19 18:23:00,
2013-04-19 14:29:00,72.1,52.7,29.71,NNE,22,7.0,27.1,50,0.00,,,0.00,VWS V14.00,2013-04-19 18:29:00,
2013-04-19 14:35:00,73.1,52.8,29.70,North,10,13.7,27.1,49,0.00,,,0.00,VWS V14.00,2013-04-19 18:35:00,
2013-04-19 14:41:00,73.8,52.0,29.70,North,359,9.4,27.1,46,0.00,,,0.00,VWS V14.00,2013-04-19 18:41:00,
2013-04-19 14:47:00,74.3,52.1,29.70,NNE,18,8.5,27.1,46,0.00,,,0.00,VWS V14.00,2013-04-19 18:47:00,
2013-04-19 14:53:00,74.7,51.7,29.70,NNE,21,3.1,27.1,45,0.00,,,0.00,VWS V14.00,2013-04-19 18:53:00,
2013-04-19 14:59:00,74.5,51.3,29.70,NNE,18,9.4,27.1,44,0.00,,,0.00,VWS V14.00,2013-04-19 18:59:00,
2013-04-19 15:05:00,74.1,50.9,29.70,NNE,24,9.8,27.1,44,0.00,,,0.00,VWS V14.00,2013-04-19 19:05:00,
2013-04-19 15:11:00,73.3,50.3,29.70,North,8,8.3,27.1,44,0.00,,,0.00,VWS V14.00,2013-04-19 19:11:00,
2013-04-19 15:17:00,72.5,50.4,29.70,North,349,4.3,27.1,46,0.00,,,0.00,VWS V14.00,2013-04-19 19:17:00,
2013-04-19 15:23:00,71.6,50.2,29.70,NE,44,8.0,27.1,47,0.00,,,0.00,VWS V14.00,2013-04-19 19:23:00,
2013-04-19 15:29:00,71.3,50.5,29.70,NW,322,8.2,27.1,48,0.00,,,0.00,VWS V14.00,2013-04-19 19:29:00,
2013-04-19 15:35:00,70.7,50.4,29.69,NNW,338,6.1,27.1,49,0.00,,,0.00,VWS V14.00,2013-04-19 19:35:00,
2013-04-19 15:41:00,70.5,50.8,29.68,NNE,22,7.8,27.1,50,0.00,,,0.00,VWS V14.00,2013-04-19 19:41:00,
2013-04-19 15:47:00,70.4,51.2,29.68,North,357,11.6,27.1,50,0.00,,,0.00,VWS V14.00,2013-04-19 19:47:00,
2013-04-19 15:53:00,70.4,51.5,29.68,North,349,7.0,27.1,51,0.00,,,0.00,VWS V14.00,2013-04-19 19:53:00,
2013-04-19 15:59:00,70.3,51.7,29.67,NE,52,6.5,27.1,52,0.00,,,0.00,VWS V14.00,2013-04-19 19:59:00,
2013-04-19 16:05:00,70.2,51.8,29.66,NE,42,5.8,27.1,52,0.00,,,0.00,VWS V14.00,2013-04-19 20:05:00,
2013-04-19 16:11:00,70.1,51.9,29.66,NE,44,8.1,27.1,52,0.00,,,0.00,VWS V14.00,2013-04-19 20:11:00,
2013-04-19 16:17:00,70.0,52.0,29.65,NNE,20,11.2,27.1,53,0.00,,,0.00,VWS V14.00,2013-04-19 20:17:00,
2013-04-19 16:23:00,69.8,52.1,29.65,NNE,20,2.7,27.1,53,0.00,,,0.00,VWS V14.00,2013-04-19 20:23:00,
2013-04-19 16:29:00,69.9,52.4,29.64,WNW,290,4.5,27.1,54,0.00,,,0.00,VWS V14.00,2013-04-19 20:29:00,
2013-04-19 16:35:00,70.0,52.7,29.63,NNE,13,5.7,27.1,54,0.00,,,0.00,VWS V14.00,2013-04-19 20:35:00,
2013-04-19 16:41:00,70.0,52.7,29.63,NE,41,11.5,27.1,54,0.00,,,0.00,VWS V14.00,2013-04-19 20:41:00,
2013-04-19 16:47:00,70.2,52.8,29.63,NNE,31,14.4,27.1,54,0.00,,,0.00,VWS V14.00,2013-04-19 20:47:00,
2013-04-19 16:53:00,70.1,52.8,29.63,NNE,13,0.0,27.1,54,0.00,,,0.00,VWS V14.00,2013-04-19 20:53:00,
2013-04-19 16:59:00,70.1,52.9,29.61,NNE,25,9.8,27.1,54,0.00,,,0.00,VWS V14.00,2013-04-19 20:59:00,
2013-04-19 17:05:00,70.1,53.1,29.58,SSE,152,8.2,27.1,55,0.00,,,0.00,VWS V14.00,2013-04-19 21:05:00,
2013-04-19 17:11:00,70.0,53.2,29.57,NE,38,4.2,27.1,55,0.00,,,0.00,VWS V14.00,2013-04-19 21:11:00,
2013-04-19 17:18:00,69.9,53.2,29.56,East,96,0.0,27.1,55,0.00,,,0.00,VWS V14.00,2013-04-19 21:18:00,
2013-04-19 17:24:00,69.8,53.2,29.55,SE,124,9.3,27.1,56,0.00,,,0.00,VWS V14.00,2013-04-19 21:24:00,
2013-04-19 17:30:00,69.8,53.3,29.56,East,84,5.8,27.1,56,0.00,,,0.00,VWS V14.00,2013-04-19 21:30:00,
2013-04-19 17:36:00,69.5,53.3,29.57,West,269,2.6,27.1,56,0.00,,,0.00,VWS V14.00,2013-04-19 21:36:00,
2013-04-19 17:42:00,69.4,53.5,29.58,NNE,30,2.9,27.1,57,0.00,,,0.00,VWS V14.00,2013-04-19 21:42:00,
2013-04-19 17:48:00,69.2,53.6,29.56,NE,38,6.1,27.1,58,0.00,,,0.00,VWS V14.00,2013-04-19 21:48:00,
2013-04-19 17:54:00,69.1,53.7,29.58,NE,55,3.5,27.1,58,0.00,,,0.00,VWS V14.00,2013-04-19 21:54:00,
2013-04-19 18:00:00,69.1,53.9,29.60,NE,42,5.5,27.1,58,0.00,,,0.00,VWS V14.00,2013-04-19 22:00:00,
2013-04-19 18:06:00,68.9,53.9,29.61,North,11,6.5,27.1,59,0.00,,,0.00,VWS V14.00,2013-04-19 22:06:00,
2013-04-19 18:12:00,68.7,54.0,29.61,North,357,5.3,27.1,59,0.00,,,0.00,VWS V14.00,2013-04-19 22:12:00,
2013-04-19 18:18:00,68.4,54.0,29.61,NE,42,0.0,27.1,60,0.00,,,0.00,VWS V14.00,2013-04-19 22:18:00,
2013-04-19 18:24:00,68.5,54.2,29.60,NE,34,0.0,27.1,60,0.00,,,0.00,VWS V14.00,2013-04-19 22:24:00,
2013-04-19 18:30:00,68.3,54.3,29.60,NE,46,3.3,27.1,61,0.00,,,0.00,VWS V14.00,2013-04-19 22:30:00,
2013-04-19 18:36:00,68.4,54.3,29.60,NE,45,0.0,27.1,61,0.00,,,0.00,VWS V14.00,2013-04-19 22:36:00,
2013-04-19 18:42:00,68.2,54.2,29.59,SE,125,6.0,27.1,61,0.00,,,0.00,VWS V14.00,2013-04-19 22:42:00,
2013-04-19 18:48:00,68.2,54.3,29.59,SSE,149,0.0,27.1,61,0.00,,,0.00,VWS V14.00,2013-04-19 22:48:00,
2013-04-19 18:54:00,68.1,54.3,29.58,ESE,107,8.0,27.1,61,0.00,,,0.00,VWS V14.00,2013-04-19 22:54:00,
2013-04-19 19:00:00,68.1,54.7,29.59,East,93,4.7,27.1,62,0.00,,,0.00,VWS V14.00,2013-04-19 23:00:00,
2013-04-19 19:06:00,68.1,55.0,29.59,ENE,69,4.3,27.1,63,0.00,,,0.00,VWS V14.00,2013-04-19 23:06:00,
2013-04-19 19:12:00,67.9,55.0,29.59,NNE,13,7.6,27.1,63,0.00,,,0.00,VWS V14.00,2013-04-19 23:12:00,
2013-04-19 19:18:00,67.8,55.2,29.58,NNE,31,3.2,27.1,64,0.00,,,0.00,VWS V14.00,2013-04-19 23:18:00,
2013-04-19 19:24:00,67.7,55.2,29.58,SE,136,8.9,27.1,64,0.00,,,0.00,VWS V14.00,2013-04-19 23:24:00,
2013-04-19 19:30:00,67.7,55.4,29.58,NNE,15,5.3,27.1,65,0.00,,,0.00,VWS V14.00,2013-04-19 23:30:00,
2013-04-19 19:36:00,67.7,55.6,29.57,ESE,112,7.0,27.1,65,0.00,,,0.00,VWS V14.00,2013-04-19 23:36:00,
2013-04-19 19:42:00,67.4,55.5,29.57,ESE,118,7.5,27.1,66,0.00,,,0.00,VWS V14.00,2013-04-19 23:42:00,
2013-04-19 19:48:00,67.3,56.1,29.57,SE,142,10.3,27.1,67,0.00,,,0.00,VWS V14.00,2013-04-19 23:48:00,
2013-04-19 19:54:00,67.1,56.6,29.56,NE,41,3.5,27.1,69,0.00,,,0.00,VWS V14.00,2013-04-19 23:54:00,
2013-04-19 20:00:00,66.5,56.8,29.55,ESE,112,8.3,27.1,71,0.00,,,0.00,VWS V14.00,2013-04-20 00:00:00,
2013-04-19 20:06:00,66.2,57.2,29.55,West,269,5.0,27.1,73,0.00,,,0.00,VWS V14.00,2013-04-20 00:06:00,
2013-04-19 20:12:00,65.8,57.3,29.55,ESE,114,6.6,27.1,74,0.00,,,0.00,VWS V14.00,2013-04-20 00:12:00,
2013-04-19 20:18:00,65.6,57.4,29.54,SE,135,7.1,27.1,75,0.00,,,0.00,VWS V14.00,2013-04-20 00:18:00,
2013-04-19 20:24:00,65.4,57.5,29.54,ESE,121,8.7,27.1,76,0.00,,,0.00,VWS V14.00,2013-04-20 00:24:00,
2013-04-19 20:30:00,65.4,57.7,29.54,ESE,115,11.0,27.1,76,0.00,,,0.00,VWS V14.00,2013-04-20 00:30:00,
2013-04-19 20:37:00,65.3,57.7,29.54,ESE,115,6.5,27.1,76,0.00,,,0.00,VWS V14.00,2013-04-20 00:37:00,
2013-04-19 20:43:00,65.2,57.8,29.54,SSE,159,9.0,27.1,77,0.00,,,0.00,VWS V14.00,2013-04-20 00:43:00,
2013-04-19 20:49:00,65.1,57.9,29.54,ESE,117,9.3,27.1,78,0.00,,,0.00,VWS V14.00,2013-04-20 00:49:00,
2013-04-19 20:55:00,64.9,58.0,29.54,ESE,117,10.6,27.1,78,0.00,,,0.00,VWS V14.00,2013-04-20 00:55:00,
2013-04-19 21:01:00,64.7,58.1,29.54,SSE,156,7.8,27.1,79,0.00,,,0.00,VWS V14.00,2013-04-20 01:01:00,
2013-04-19 21:07:00,64.6,58.3,29.54,SSE,156,3.4,27.1,80,0.00,,,0.00,VWS V14.00,2013-04-20 01:07:00,
2013-04-19 21:13:00,64.3,58.4,29.53,NE,52,5.2,27.1,81,0.00,,,0.00,VWS V14.00,2013-04-20 01:13:00,
2013-04-19 21:19:00,64.0,58.4,29.53,SSE,148,10.4,27.1,82,0.00,,,0.00,VWS V14.00,2013-04-20 01:19:00,
2013-04-19 21:25:00,63.9,58.6,29.53,SE,124,6.7,27.1,83,0.00,,,0.00,VWS V14.00,2013-04-20 01:25:00,
2013-04-19 21:31:00,63.8,58.8,29.52,East,83,0.0,27.1,84,0.00,,,0.00,VWS V14.00,2013-04-20 01:31:00,
2013-04-19 21:37:00,63.7,58.9,29.52,SE,143,5.5,27.1,84,0.00,,,0.00,VWS V14.00,2013-04-20 01:37:00,
2013-04-19 21:43:00,63.6,59.0,29.53,ENE,69,0.0,27.1,85,0.00,,,0.00,VWS V14.00,2013-04-20 01:43:00,
2013-04-19 21:49:00,63.4,59.0,29.51,ESE,114,0.0,27.1,86,0.00,,,0.00,VWS V14.00,2013-04-20 01:49:00,
2013-04-19 21:55:00,63.2,59.0,29.50,ESE,112,0.0,27.1,86,0.00,,,0.00,VWS V14.00,2013-04-20 01:55:00,
2013-04-19 22:01:00,63.2,59.0,29.49,SE,139,0.0,27.1,86,0.00,,,0.00,VWS V14.00,2013-04-20 02:01:00,
2013-04-19 22:07:00,62.8,57.5,29.56,NW,305,9.6,27.1,83,0.00,,,0.00,VWS V14.00,2013-04-20 02:07:00,
2013-04-19 22:13:00,58.8,51.5,29.64,North,359,5.5,27.1,77,0.00,,,0.00,VWS V14.00,2013-04-20 02:13:00,
2013-04-19 22:19:00,55.6,49.7,29.65,NW,311,4.7,27.1,81,0.00,,,0.00,VWS V14.00,2013-04-20 02:19:00,
2013-04-19 22:25:00,53.5,48.8,29.64,NW,309,0.0,27.1,84,0.00,,,0.00,VWS V14.00,2013-04-20 02:25:00,
2013-04-19 22:31:00,52.4,48.6,29.67,NNW,339,0.0,27.1,87,0.00,,,0.00,VWS V14.00,2013-04-20 02:31:00,
2013-04-19 22:37:00,51.8,48.5,29.68,NNW,339,0.0,27.1,88,0.00,,,0.00,VWS V14.00,2013-04-20 02:37:00,
2013-04-19 22:43:00,50.9,47.8,29.67,NNW,328,0.0,27.1,89,0.00,,,0.00,VWS V14.00,2013-04-20 02:43:00,
2013-04-19 22:49:00,50.0,47.2,29.68,WNW,288,0.0,27.1,90,0.00,,,0.00,VWS V14.00,2013-04-20 02:49:00,
2013-04-19 22:55:00,49.5,47.0,29.69,North,349,0.0,27.1,91,0.00,,,0.00,VWS V14.00,2013-04-20 02:55:00,
2013-04-19 23:01:00,49.5,47.2,29.67,North,349,0.0,27.1,92,0.00,,,0.00,VWS V14.00,2013-04-20 03:01:00,
2013-04-19 23:07:00,49.5,47.4,29.67,North,349,0.0,27.1,92,0.00,,,0.00,VWS V14.00,2013-04-20 03:07:00,
2013-04-19 23:13:00,49.1,47.0,29.69,North,349,0.0,27.1,92,0.00,,,0.00,VWS V14.00,2013-04-20 03:13:00,
2013-04-19 23:19:00,49.1,47.0,29.68,North,349,0.0,27.1,92,0.00,,,0.00,VWS V14.00,2013-04-20 03:19:00,
2013-04-19 23:25:00,48.7,46.5,29.69,North,349,0.0,27.1,92,0.00,,,0.00,VWS V14.00,2013-04-20 03:25:00,
2013-04-19 23:31:00,48.5,46.4,29.68,North,349,0.0,27.1,92,0.00,,,0.00,VWS V14.00,2013-04-20 03:31:00,
2013-04-19 23:38:00,48.0,46.0,29.68,North,349,0.0,27.1,93,0.00,,,0.00,VWS V14.00,2013-04-20 03:38:00,
2013-04-19 23:44:00,48.1,46.3,29.69,North,349,0.0,27.1,94,0.00,,,0.00,VWS V14.00,2013-04-20 03:44:00,
2013-04-19 23:50:00,47.9,46.2,29.69,North,349,0.0,0.0,94,0.00,,,0.00,VWS V14.00,2013-04-20 03:50:00,
2013-04-19 23:56:00,47.7,46.1,29.67,North,349,0.0,0.0,94,0.00,,,0.00,VWS V14.00,2013-04-20 03:56:00,